Time;durP1;ratioP1;P1;durP2;ratioP2;P2;SDS_P1;SDS_P2;PMS_P1;PMS_P2;Temp;Humidity;BMP_temperature;BMP_pressure;BME280_temperature;BME280_humidity;BME280_pressure;Samples;Min_cycle;Max_cycle;Signal;HPM_P1;HPM_P2
2022/08/23 00:00:17;;;;;;;8.63;4.93;;;;;;;19.19;78.14;68901.91;4877603;29;20074;-77
2022/08/23 00:02:42;;;;;;;9.50;4.60;;;;;;;;;;4890158;29;20116;-77
2022/08/23 00:05:08;;;;;;;7.10;4.90;;;;;;;19.12;78.25;68894.47;4895606;29;20055;-77
2022/08/23 00:07:34;;;;;;;6.93;5.07;;;;;;;;;;4894531;29;20156;-77
2022/08/23 00:09:59;;;;;;;7.72;4.38;;;;;;;19.12;78.09;68900.44;4898408;29;20127;-77
2022/08/23 00:12:25;;;;;;;8.82;5.05;;;;;;;19.07;78.46;68889.31;4894641;29;20480;-77
2022/08/23 00:14:53;;;;;;;10.07;5.10;;;;;;;19.06;78.34;68893.03;4909486;29;20570;-78
2022/08/23 00:17:19;;;;;;;8.00;5.43;;;;;;;;;;4897330;29;20123;-78
2022/08/23 00:29:11;;;;;;;7.45;5.18;;;;;;;;;;4909741;29;20563;-78
2022/08/23 00:31:36;;;;;;;9.97;5.37;;;;;;;18.69;79.77;68847.03;4914725;29;20047;-78
2022/08/23 00:34:02;;;;;;;10.73;5.55;;;;;;;18.72;79.50;68849.91;4915000;29;20788;-78
2022/08/23 00:36:28;;;;;;;7.07;5.60;;;;;;;18.67;79.72;68850.16;4913636;29;20048;-78
2022/08/23 00:38:53;;;;;;;8.48;5.40;;;;;;;18.60;79.87;68842.16;4915359;29;20051;-78
2022/08/23 00:41:18;;;;;;;10.48;5.72;;;;;;;18.51;80.25;68826.50;4915218;29;20419;-78
2022/08/23 00:47:38;;;;;;;10.10;5.82;;;;;;;18.45;80.70;68819.66;4910161;29;20123;-77
2022/08/23 00:49:52;;;;;;;10.00;6.15;;;;;;;;;;4905632;29;20048;-77
2022/08/23 00:52:35;;;;;;;8.15;5.65;;;;;;;18.26;81.21;68804.47;4892448;29;20045;-77
2022/08/23 00:55:00;;;;;;;9.80;6.30;;;;;;;;;;4904782;29;20576;-77
2022/08/23 00:57:26;;;;;;;8.52;6.15;;;;;;;;;;4916163;29;20047;-77
2022/08/23 00:59:52;;;;;;;10.27;6.00;;;;;;;18.18;81.44;68786.69;4914194;29;20053;-77
2022/08/23 01:02:18;;;;;;;8.32;6.03;;;;;;;18.14;81.79;68790.22;4931141;29;20051;-77
2022/08/23 01:04:48;;;;;;;9.07;6.15;;;;;;;18.07;81.72;68782.81;4923368;29;20654;-77
2022/08/23 01:07:19;;;;;;;11.82;6.47;;;;;;;18.04;82.01;68774.56;4893737;29;20056;-77
2022/08/23 01:09:48;;;;;;;8.20;6.53;;;;;;;17.98;82.31;68773.09;4892512;29;20061;-77
2022/08/23 01:12:22;;;;;;;10.27;6.88;;;;;;;17.93;82.82;68758.75;4892322;29;20048;-77
2022/08/23 01:14:59;;;;;;;7.25;6.07;;;;;;;17.84;83.24;68756.53;4886677;29;20092;-77
2022/08/23 01:17:30;;;;;;;9.23;7.05;;;;;;;17.74;83.77;68745.69;4911823;29;20044;-77
2022/08/23 01:19:57;;;;;;;10.10;7.18;;;;;;;;;;4907121;29;20602;-77
2022/08/23 01:22:33;;;;;;;9.90;6.63;;;;;;;17.67;84.13;68738.25;4900881;29;20040;-77
2022/08/23 01:24:59;;;;;;;10.50;6.88;;;;;;;17.63;84.44;68733.69;4913818;29;20052;-77
2022/08/23 01:27:26;;;;;;;10.18;7.72;;;;;;;17.62;84.30;68732.56;4912299;29;20060;-77
2022/08/23 01:29:52;;;;;;;9.93;7.25;;;;;;;;;;4902028;29;20123;-77
2022/08/23 01:32:17;;;;;;;8.73;7.07;;;;;;;17.57;84.39;68721.47;4912075;29;20567;-77
2022/08/23 01:34:43;;;;;;;10.55;6.72;;;;;;;17.54;84.54;68726.13;4910143;29;20096;-77
2022/08/23 01:37:08;;;;;;;9.02;7.20;;;;;;;17.45;85.16;68713.16;4912951;29;20051;-77
2022/08/23 01:39:34;;;;;;;11.52;7.35;;;;;;;;;;4910755;29;20044;-77
2022/08/23 01:41:59;;;;;;;9.95;7.22;;;;;;;17.36;85.08;68698.63;4910601;29;20040;-77
2022/08/23 01:44:25;;;;;;;9.80;7.20;;;;;;;;;;4911481;29;20044;-77
2022/08/23 01:46:51;;;;;;;9.73;7.15;;;;;;;17.26;85.64;68692.63;4912372;29;20048;-77
2022/08/23 01:49:16;;;;;;;12.82;7.72;;;;;;;;;;4911724;29;20726;-77
2022/08/23 01:51:41;;;;;;;10.00;7.32;;;;;;;;;;4908848;29;20114;-77
2022/08/23 01:54:07;;;;;;;9.35;7.57;;;;;;;17.14;85.98;68678.91;4910766;29;20539;-77
2022/08/23 01:56:33;;;;;;;10.60;7.88;;;;;;;;;;4908453;29;20040;-77
2022/08/23 01:58:59;;;;;;;9.88;7.78;;;;;;;17.05;86.62;68660.59;4914057;29;20039;-77
2022/08/23 02:01:24;;;;;;;9.52;8.05;;;;;;;17.00;86.99;68663.50;4912669;29;20135;-77
2022/08/23 02:03:50;;;;;;;9.43;7.90;;;;;;;16.96;87.17;68658.41;4910202;29;20044;-77
2022/08/23 02:06:15;;;;;;;8.48;7.55;;;;;;;16.91;87.39;68653.81;4909823;29;20051;-77
2022/08/23 02:11:26;;;;;;;11.43;7.97;;;;;;;16.85;87.46;68649.09;4908956;29;20112;-77
2022/08/23 02:13:54;;;;;;;9.85;8.23;;;;;;;16.81;87.98;68642.44;4910941;29;20115;-77
2022/08/23 02:16:40;;;;;;;11.75;8.43;;;;;;;;;;4912835;29;20407;-77
2022/08/23 02:19:07;;;;;;;11.63;9.35;;;;;;;;;;4908352;29;20747;-77
2022/08/23 02:21:34;;;;;;;11.25;9.27;;;;;;;16.59;89.22;68617.31;4909608;29;20053;-77
2022/08/23 02:24:08;;;;;;;11.32;9.02;;;;;;;;;;4896383;29;20099;-77
2022/08/23 02:26:37;;;;;;;12.13;8.98;;;;;;;;;;4892666;29;20056;-77
2022/08/23 02:29:03;;;;;;;;;;;;;;;16.37;90.07;68588.00;4911549;29;20515;-77
2022/08/23 02:31:28;;;;;;;11.50;10.18;;;;;;;16.24;90.70;68579.13;4912729;29;20546;-77
2022/08/23 02:33:54;;;;;;;13.25;9.88;;;;;;;16.21;91.16;68569.75;4897267;29;20068;-77
2022/08/23 02:36:19;;;;;;;13.45;9.40;;;;;;;16.21;91.04;68569.75;4913765;29;20056;-77
2022/08/23 02:38:44;;;;;;;11.23;10.13;;;;;;;;;;4914215;29;20046;-77
2022/08/23 02:41:10;;;;;;;11.30;9.37;;;;;;;;;;4915030;29;20567;-77
2022/08/23 02:43:36;;;;;;;10.98;9.85;;;;;;;16.23;90.79;68572.63;4913784;29;20355;-77
2022/08/23 02:46:04;;;;;;;11.38;9.48;;;;;;;;;;4912746;29;20163;-77
2022/08/23 02:48:31;;;;;;;13.20;9.63;;;;;;;16.25;90.24;68574.31;4915994;29;20633;-77
2022/08/23 02:51:02;;;;;;;10.63;9.43;;;;;;;16.20;90.73;68569.19;4912730;29;20040;-77
2022/08/23 02:53:28;;;;;;;11.88;10.30;;;;;;;16.18;90.58;68571.72;4916207;29;20554;-77
2022/08/23 02:55:54;;;;;;;12.25;9.95;;;;;;;16.15;90.47;68570.97;4911768;29;20180;-77
2022/08/23 02:58:20;;;;;;;11.48;10.38;;;;;;;16.18;90.51;68571.72;4913364;29;20139;-77
2022/08/23 03:00:46;;;;;;;16.38;10.93;;;;;;;;;;4912423;29;20044;-77
2022/08/23 03:03:12;;;;;;;12.05;10.45;;;;;;;16.02;91.83;68554.03;4914099;29;20051;-77
2022/08/23 03:05:37;;;;;;;13.35;11.13;;;;;;;;;;4913299;29;20056;-77
2022/08/23 03:08:03;;;;;;;12.03;10.93;;;;;;;15.98;91.83;68550.06;4914159;29;20055;-77
2022/08/23 03:10:28;;;;;;;12.43;11.15;;;;;;;;;;4912220;29;20297;-77
2022/08/23 03:12:53;;;;;;;12.77;11.18;;;;;;;15.90;92.59;68543.63;4917374;29;20075;-77
2022/08/23 03:15:19;;;;;;;13.10;11.70;;;;;;;15.84;92.35;68533.53;4913048;29;20527;-77
2022/08/23 03:17:45;;;;;;;11.40;10.10;;;;;;;;;;4912322;29;20103;-77
2022/08/23 03:20:10;;;;;;;14.38;11.45;;;;;;;;;;4907455;29;20048;-77
2022/08/23 03:22:36;;;;;;;13.38;10.82;;;;;;;15.76;92.59;68525.53;4893786;29;20068;-77
2022/08/23 03:25:03;;;;;;;14.85;11.43;;;;;;;15.75;93.02;68524.41;4893648;29;20453;-77
2022/08/23 03:27:30;;;;;;;17.75;12.35;;;;;;;15.76;93.04;68527.66;4893048;29;20440;-77
2022/08/23 03:29:56;;;;;;;17.10;12.65;;;;;;;15.73;93.39;68522.13;4895722;29;20037;-77
2022/08/23 03:32:21;;;;;;;16.20;13.07;;;;;;;;;;4894166;29;20040;-77
2022/08/23 03:34:47;;;;;;;18.05;12.68;;;;;;;15.71;93.65;68525.22;4893662;29;20045;-77
2022/08/23 03:37:12;;;;;;;15.73;12.60;;;;;;;15.73;93.38;68521.56;4893395;29;20079;-77
2022/08/23 03:39:38;;;;;;;17.67;13.13;;;;;;;;;;4892470;29;20096;-77
2022/08/23 03:42:03;;;;;;;14.35;12.32;;;;;;;;;;4894620;29;20048;-77
2022/08/23 03:44:28;;;;;;;13.48;12.13;;;;;;;;;;4893592;29;20049;-77
2022/08/23 03:46:54;;;;;;;13.70;12.30;;;;;;;;;;4892416;29;20045;-77
2022/08/23 03:49:19;;;;;;;15.65;13.10;;;;;;;;;;4892681;29;20044;-77
2022/08/23 03:51:45;;;;;;;13.87;12.00;;;;;;;15.75;93.22;68523.84;4893931;29;20056;-77
2022/08/23 03:54:10;;;;;;;15.15;13.50;;;;;;;15.72;93.52;68520.44;4893699;29;20332;-77
2022/08/23 03:56:37;;;;;;;17.80;12.77;;;;;;;;;;4892502;29;20091;-77
2022/08/23 03:59:07;;;;;;;14.52;12.90;;;;;;;15.64;94.00;68505.91;4893610;29;20068;-77
2022/08/23 04:01:32;;;;;;;15.65;14.10;;;;;;;15.60;94.09;68507.31;4896755;29;20123;-77
2022/08/23 04:03:58;;;;;;;16.83;13.43;;;;;;;15.58;94.24;68505.03;4892964;29;20143;-77
2022/08/23 04:06:24;;;;;;;17.80;14.23;;;;;;;;;;4889957;29;20045;-77
2022/08/23 04:08:49;;;;;;;15.57;13.98;;;;;;;;;;4893309;29;20063;-77
2022/08/23 04:11:14;;;;;;;17.13;13.23;;;;;;;15.39;94.92;68483.38;4889223;29;20128;-77
2022/08/23 04:13:40;;;;;;;16.83;14.27;;;;;;;15.34;95.20;68478.25;4876890;29;20286;-77
2022/08/23 04:16:05;;;;;;;16.55;14.77;;;;;;;;;;4893298;29;20556;-77
2022/08/23 04:18:31;;;;;;;16.65;13.77;;;;;;;;;;4893094;29;20052;-77
2022/08/23 04:21:00;;;;;;;14.88;13.30;;;;;;;15.25;95.32;68468.56;4896511;29;20054;-77
2022/08/23 04:23:26;;;;;;;21.17;15.57;;;;;;;;;;4912993;23;20048;-89
2022/08/23 04:25:53;;;;;;;19.15;15.25;;;;;;;15.27;95.77;68465.47;4890389;29;20063;-89
2022/08/23 04:28:19;;;;;;;19.25;14.55;;;;;;;15.20;95.79;68465.00;4927853;28;20040;-89
2022/08/23 04:30:44;;;;;;;16.58;14.40;;;;;;;15.17;96.69;68461.56;4910196;29;20059;-89
2022/08/23 04:33:10;;;;;;;18.02;15.50;;;;;;;15.14;96.92;68458.16;4913578;29;20443;-89
2022/08/23 04:35:44;;;;;;;19.08;15.98;;;;;;;15.09;97.00;68450.34;4912219;29;20063;-88
2022/08/23 04:38:10;;;;;;;19.13;14.82;;;;;;;;;;4906266;29;20095;-89
2022/08/23 04:43:20;;;;;;;17.77;15.75;;;;;;;15.05;97.11;68446.34;4916801;29;20051;-89
2022/08/23 04:45:46;;;;;;;18.42;15.55;;;;;;;15.01;97.43;68441.78;4911814;29;20056;-89
2022/08/23 04:48:11;;;;;;;20.92;15.80;;;;;;;;;;4932094;29;20100;-89
2022/08/23 04:50:37;;;;;;;19.63;16.02;;;;;;;15.05;98.16;68441.00;4913700;29;20044;-89
2022/08/23 04:53:03;;;;;;;20.33;16.25;;;;;;;15.09;97.63;68445.53;4911920;29;20059;-89
2022/08/23 04:55:28;;;;;;;18.80;15.50;;;;;;;;;;4932847;29;20039;-89
2022/08/23 04:57:54;;;;;;;18.95;16.95;;;;;;;15.12;97.34;68448.97;4931894;29;20043;-88
2022/08/23 05:00:20;;;;;;;21.08;16.33;;;;;;;15.20;97.29;68456.94;4931376;29;20043;-89
2022/08/23 05:02:45;;;;;;;19.98;15.88;;;;;;;;;;4923319;29;20281;-88
2022/08/23 05:05:11;;;;;;;18.52;16.15;;;;;;;;;;4932778;29;20127;-89
2022/08/23 05:07:37;;;;;;;18.10;16.02;;;;;;;15.32;96.72;68475.97;4932123;29;20039;-88
2022/08/23 05:10:05;;;;;;;19.88;16.00;;;;;;;15.35;96.67;68479.94;4933414;29;20047;-89
2022/08/23 05:12:31;;;;;;;18.02;15.75;;;;;;;15.40;96.74;68487.19;4931969;29;20392;-87
2022/08/23 05:14:56;;;;;;;18.23;15.55;;;;;;;;;;4914811;29;20040;-89
2022/08/23 05:17:21;;;;;;;16.85;15.15;;;;;;;;;;4934784;29;20047;-90
2022/08/23 05:19:47;;;;;;;18.45;16.30;;;;;;;15.65;96.26;68507.63;4930067;29;20574;-90
2022/08/23 05:22:13;;;;;;;20.67;17.48;;;;;;;15.71;95.97;68519.28;4926089;29;20040;-89
2022/08/23 05:24:38;;;;;;;20.00;16.63;;;;;;;15.85;95.36;68535.22;4928752;29;20051;-90
2022/08/23 05:27:03;;;;;;;19.50;16.60;;;;;;;15.93;94.46;68543.78;4905956;29;20043;-88
2022/08/23 05:29:29;;;;;;;19.23;16.25;;;;;;;16.01;94.42;68556.16;4910752;29;20506;-89
2022/08/23 05:31:55;;;;;;;16.13;14.40;;;;;;;16.12;94.14;68565.44;4896389;29;20151;-89
2022/08/23 05:34:21;;;;;;;18.27;16.20;;;;;;;16.21;93.58;68575.69;4929090;29;20102;-89
2022/08/23 05:36:47;;;;;;;16.02;14.40;;;;;;;;;;4909875;29;20043;-90
2022/08/23 05:39:14;;;;;;;16.45;14.95;;;;;;;16.41;92.81;68592.00;4930725;29;20059;-88
2022/08/23 05:41:43;;;;;;;17.63;14.93;;;;;;;16.51;91.68;68608.19;4927924;29;20043;-90
2022/08/23 05:44:09;;;;;;;15.95;14.38;;;;;;;16.59;91.66;68617.31;4928045;29;20741;-88
2022/08/23 05:46:36;;;;;;;16.85;14.70;;;;;;;16.62;91.39;68620.72;4931889;29;20479;-89
2022/08/23 05:49:02;;;;;;;16.23;14.60;;;;;;;16.64;91.15;68623.59;4936947;29;20066;-89
2022/08/23 05:51:29;;;;;;;17.15;15.23;;;;;;;;;;4937000;29;20075;-90
2022/08/23 05:54:03;;;;;;;16.10;13.90;;;;;;;16.76;90.39;68636.13;4936482;29;20050;-90
2022/08/23 05:56:33;;;;;;;15.90;14.25;;;;;;;16.82;90.12;68643.56;4937490;29;20047;-90
2022/08/23 05:59:01;;;;;;;;;;;;;;;16.92;89.36;68649.03;4950738;29;20047;-91
2022/08/23 06:01:28;;;;;;;17.70;13.95;;;;;;;16.96;88.93;68658.41;4950492;29;19919;-90
2022/08/23 06:03:54;;;;;;;14.75;13.23;;;;;;;17.11;88.47;68676.06;4943925;29;20066;-89
2022/08/23 06:06:20;;;;;;;14.18;12.77;;;;;;;17.23;87.47;68683.25;4932575;29;20043;-89
2022/08/23 06:08:47;;;;;;;17.83;13.25;;;;;;;17.33;87.37;68695.22;4933285;29;20035;-88
2022/08/23 06:11:18;;;;;;;15.95;12.07;;;;;;;17.44;86.99;68707.22;4935010;29;20043;-91
2022/08/23 06:13:45;;;;;;;12.77;11.45;;;;;;;;;;4933923;29;20426;-90
2022/08/23 06:16:13;;;;;;;13.85;11.27;;;;;;;17.63;85.91;68728.31;4935558;29;20520;-89
2022/08/23 06:18:39;;;;;;;13.77;10.85;;;;;;;;;;4934927;29;20163;-89
2022/08/23 06:21:07;;;;;;;15.73;11.55;;;;;;;17.91;84.43;68765.09;4917620;29;20506;-89
2022/08/23 06:23:33;;;;;;;12.93;11.10;;;;;;;;;;4918318;29;20059;-89
2022/08/23 06:26:00;;;;;;;11.48;10.32;;;;;;;18.06;83.14;68776.25;4934584;29;20528;-89
2022/08/23 06:28:27;;;;;;;11.90;9.85;;;;;;;;;;4934297;29;20376;-89
2022/08/23 06:30:55;;;;;;;14.05;10.10;;;;;;;18.35;82.14;68816.31;4938550;29;20044;-90
2022/08/23 06:33:20;;;;;;;14.70;9.90;;;;;;;;;;4918313;29;20050;-87
2022/08/23 06:35:47;;;;;;;11.60;9.25;;;;;;;18.62;80.59;68844.47;4930799;29;20052;-90
2022/08/23 06:38:12;;;;;;;13.43;8.88;;;;;;;18.85;79.85;68869.59;4930136;29;20056;-90
2022/08/23 06:40:38;;;;;;;11.02;8.40;;;;;;;18.96;78.56;68876.19;4917163;29;20043;-90
2022/08/23 06:43:03;;;;;;;12.43;8.65;;;;;;;19.07;77.50;68894.72;4936264;29;20051;-89
2022/08/23 06:45:30;;;;;;;11.65;8.15;;;;;;;19.24;76.98;68913.00;4927018;29;20554;-90
2022/08/23 06:47:56;;;;;;;12.70;8.07;;;;;;;;;;4916788;29;20032;-87
2022/08/23 06:50:22;;;;;;;13.48;8.27;;;;;;;;;;4933955;29;20056;-89
2022/08/23 06:52:48;;;;;;;10.85;8.70;;;;;;;19.63;75.43;68951.59;4932851;29;20075;-89
2022/08/23 06:55:14;;;;;;;10.45;7.97;;;;;;;;;;4919082;29;20119;-91
2022/08/23 06:57:39;;;;;;;12.38;8.95;;;;;;;19.77;74.62;68962.22;4908394;29;20040;-89
2022/08/23 07:00:08;;;;;;;12.02;8.75;;;;;;;;;;4931130;29;20050;-91
2022/08/23 07:02:34;;;;;;;12.82;8.35;;;;;;;19.97;73.47;68987.22;4913708;29;20047;-90
2022/08/23 07:05:00;;;;;;;10.85;9.02;;;;;;;20.12;73.02;69011.91;4924972;29;20054;-90
2022/08/23 07:07:25;;;;;;;11.93;8.07;;;;;;;;;;4904732;29;20119;-90
2022/08/23 07:09:51;;;;;;;11.88;8.32;;;;;;;;;;4912497;29;20044;-90
2022/08/23 07:12:19;;;;;;;11.25;8.93;;;;;;;;;;4896890;29;20543;-90
2022/08/23 07:14:44;;;;;;;16.02;8.65;;;;;;;20.66;70.21;69067.13;4912030;29;20129;-90
2022/08/23 07:17:11;;;;;;;11.30;8.48;;;;;;;20.85;70.00;69088.28;4918760;29;20047;-90
2022/08/23 07:19:37;;;;;;;11.30;9.07;;;;;;;20.95;69.82;69097.00;4925498;28;20412;-90
2022/08/23 07:22:04;;;;;;;10.10;8.23;;;;;;;21.15;69.13;69121.47;4911700;29;20048;-90
2022/08/23 07:24:31;;;;;;;13.60;9.50;;;;;;;;;;4909546;29;20044;-90
2022/08/23 07:26:57;;;;;;;11.15;8.10;;;;;;;21.30;67.63;69138.03;4924868;29;20044;-92
2022/08/23 07:29:23;;;;;;;12.70;8.68;;;;;;;21.39;67.04;69142.94;4923431;29;20107;-90
2022/08/23 07:31:52;;;;;;;12.40;8.32;;;;;;;21.48;66.91;69158.09;4912527;29;20047;-90
2022/08/23 07:34:19;;;;;;;13.52;9.00;;;;;;;21.56;66.41;69167.25;4923717;29;20149;-91
2022/08/23 07:36:46;;;;;;;14.90;8.93;;;;;;;21.68;66.14;69180.97;4919669;29;20047;-90
2022/08/23 07:39:12;;;;;;;13.02;8.20;;;;;;;;;;4912874;29;20479;-90
2022/08/23 07:41:38;;;;;;;14.60;8.77;;;;;;;21.80;65.86;69194.13;4915117;29;20149;-89
2022/08/23 07:44:07;;;;;;;12.93;8.05;;;;;;;21.86;65.67;69198.28;4941236;29;20109;-90
2022/08/23 07:46:33;;;;;;;;;;;;;;;21.94;65.56;69206.88;4929900;29;20062;-90
2022/08/23 07:49:00;;;;;;;15.50;9.10;;;;;;;21.98;65.40;69212.03;4908448;29;20374;-91
2022/08/23 07:51:28;;;;;;;11.98;8.65;;;;;;;22.04;64.77;69221.63;4895813;29;20184;-90
2022/08/23 07:53:53;;;;;;;15.32;8.35;;;;;;;22.18;64.53;69236.50;4893660;29;20131;-91
2022/08/23 07:56:20;;;;;;;11.13;8.02;;;;;;;22.20;64.14;69239.38;4913113;29;20043;-90
2022/08/23 07:58:46;;;;;;;13.02;8.50;;;;;;;22.32;63.89;69249.25;4905476;29;20039;-89
2022/08/23 08:01:14;;;;;;;11.80;7.40;;;;;;;;;;4918416;29;20043;-90
2022/08/23 08:03:40;;;;;;;14.18;7.68;;;;;;;;;;4926411;28;20051;-90
2022/08/23 08:06:14;;;;;;;11.02;8.02;;;;;;;22.58;62.79;69276.31;4915109;29;20036;-90
2022/08/23 08:08:41;;;;;;;13.98;8.00;;;;;;;22.61;62.22;69279.75;4913893;29;20563;-90
2022/08/23 08:11:12;;;;;;;13.65;8.00;;;;;;;22.59;62.28;69277.47;4910609;29;20519;-92
2022/08/23 08:13:39;;;;;;;10.82;7.55;;;;;;;;;;4913071;29;20040;-91
2022/08/23 08:16:05;;;;;;;14.70;7.88;;;;;;;22.73;62.02;69295.66;4912533;29;20103;-91
2022/08/23 08:18:31;;;;;;;14.32;8.00;;;;;;;22.88;61.92;69310.09;4922597;29;20135;-90
2022/08/23 08:20:56;;;;;;;10.77;6.85;;;;;;;23.10;61.36;69345.03;4911379;29;20436;-91
2022/08/23 08:23:28;;;;;;;13.05;8.15;;;;;;;23.06;60.93;69335.59;4914113;29;20392;-91
2022/08/23 08:26:04;;;;;;;13.43;7.80;;;;;;;;;;4907662;29;20048;-91
2022/08/23 08:28:30;;;;;;;11.77;7.40;;;;;;;23.21;60.37;69349.50;4901501;29;20059;-92
2022/08/23 08:30:57;;;;;;;11.57;7.55;;;;;;;;;;4909852;29;20040;-91
2022/08/23 08:33:23;;;;;;;14.35;7.90;;;;;;;;;;4913722;29;20528;-90
2022/08/23 08:35:49;;;;;;;10.38;6.57;;;;;;;23.63;58.10;69394.34;4919765;29;20043;-90
2022/08/23 08:38:14;;;;;;;13.30;8.10;;;;;;;23.62;58.00;69395.91;4926266;29;20061;-90
2022/08/23 08:40:41;;;;;;;9.68;6.95;;;;;;;23.75;58.01;69412.97;4929474;29;20499;-91
2022/08/23 08:43:21;;;;;;;14.63;7.68;;;;;;;23.84;58.41;69423.28;4911826;29;20046;-91
2022/08/23 08:46:03;;;;;;;14.07;7.25;;;;;;;23.95;57.46;69435.31;4893160;29;20044;-90
2022/08/23 08:48:44;;;;;;;10.90;6.75;;;;;;;24.02;56.38;69440.63;4915520;29;20309;-91
2022/08/23 08:51:27;;;;;;;13.50;7.38;;;;;;;24.10;55.87;69451.94;4928873;29;20063;-91
2022/08/23 08:53:54;;;;;;;9.73;6.45;;;;;;;24.19;56.33;69458.97;4912412;29;20455;-91
2022/08/23 08:56:28;;;;;;;11.40;6.70;;;;;;;24.39;55.86;69484.03;4914142;29;20047;-90
2022/08/23 08:58:56;;;;;;;11.80;6.05;;;;;;;;;;4900462;29;20052;-90
2022/08/23 09:01:25;;;;;;;14.40;6.93;;;;;;;24.63;53.78;69511.00;4909495;29;20048;-92
2022/08/23 09:03:51;;;;;;;11.95;6.15;;;;;;;24.66;54.32;69511.75;4910154;29;20066;-90
2022/08/23 09:07:01;;;;;;;11.63;6.63;;;;;;;24.88;53.91;69533.66;4910687;29;20127;-91
2022/08/23 09:09:48;;;;;;;10.48;6.72;;;;;;;24.88;54.00;69539.69;4906729;29;20495;-91
2022/08/23 09:12:15;;;;;;;13.30;5.78;;;;;;;25.15;52.32;69569.56;4925778;29;20052;-90
2022/08/23 09:14:43;;;;;;;12.18;6.38;;;;;;;25.27;51.91;69583.31;4904839;29;20043;-90
2022/08/23 09:17:50;;;;;;;11.73;6.05;;;;;;;25.34;52.70;69590.75;4923003;29;20055;-91
2022/08/23 09:20:19;;;;;;;12.18;6.55;;;;;;;25.28;52.48;69581.72;4907316;29;20103;-90
2022/08/23 09:22:46;;;;;;;12.10;6.43;;;;;;;;;;4913486;29;20119;-90
2022/08/23 09:25:15;;;;;;;8.38;5.80;;;;;;;25.21;51.15;69568.81;4890530;29;20126;-90
2022/08/23 09:27:43;;;;;;;11.30;5.93;;;;;;;25.46;50.81;69599.06;4924084;29;20130;-90
2022/08/23 09:30:16;;;;;;;14.00;6.38;;;;;;;25.52;51.34;69610.84;4896923;29;20050;-91
2022/08/23 09:32:44;;;;;;;9.82;5.68;;;;;;;25.74;50.75;69633.38;4931826;29;20040;-90
2022/08/23 09:35:24;;;;;;;15.80;6.50;;;;;;;25.72;49.57;69628.34;4901819;29;20504;-91
2022/08/23 09:38:14;;;;;;;12.68;6.28;;;;;;;25.71;50.37;69632.66;4897374;29;20211;-91
2022/08/23 09:40:48;;;;;;;10.15;5.72;;;;;;;25.81;49.97;69640.84;4909607;29;20044;-89
2022/08/23 09:43:15;;;;;;;10.15;5.40;;;;;;;26.08;49.25;69668.53;4924062;29;20095;-90
2022/08/23 09:45:51;;;;;;;9.05;4.75;;;;;;;26.13;48.08;69679.19;4918695;29;20062;-90
2022/08/23 09:48:42;;;;;;;8.35;3.92;;;;;;;26.30;47.38;69696.53;4911785;29;20430;-90
2022/08/23 09:51:23;;;;;;;8.70;4.57;;;;;;;26.59;46.71;69730.88;4892079;29;20524;-90
2022/08/23 09:54:09;;;;;;;7.30;4.00;;;;;;;26.75;47.18;69749.78;4923230;29;20051;-92
2022/08/23 09:56:39;;;;;;;8.27;4.30;;;;;;;26.93;45.65;69769.91;4926351;29;20078;-91
2022/08/23 09:59:26;;;;;;;7.57;3.88;;;;;;;27.15;45.65;69794.63;4928294;29;20498;-91
2022/08/23 10:01:55;;;;;;;8.93;4.10;;;;;;;27.18;45.39;69792.03;4925355;29;20165;-90
2022/08/23 10:04:53;;;;;;;7.85;4.38;;;;;;;27.13;44.60;69786.84;4911484;29;20273;-91
2022/08/23 10:07:27;;;;;;;7.90;4.70;;;;;;;27.15;45.48;69794.03;4939173;28;20043;-91
2022/08/23 10:09:53;;;;;;;9.43;4.15;;;;;;;27.41;43.94;69823.91;4910723;29;20050;-90
2022/08/23 10:12:18;;;;;;;9.18;4.18;;;;;;;27.25;43.00;69800.06;4912111;29;20035;-89
2022/08/23 10:14:44;;;;;;;7.30;3.78;;;;;;;27.21;42.33;69798.78;4933151;29;20516;-91
2022/08/23 10:17:36;;;;;;;8.52;3.78;;;;;;;27.19;42.66;69796.50;4933277;29;20050;-90
2022/08/23 10:20:35;;;;;;;7.63;3.83;;;;;;;27.23;42.83;69803.81;4914593;29;20454;-91
2022/08/23 10:23:39;;;;;;;7.65;3.47;;;;;;;27.33;42.27;69811.41;4906288;29;20512;-90
2022/08/23 10:26:09;;;;;;;9.90;4.15;;;;;;;27.29;42.26;69806.84;4851766;29;20056;-90
2022/08/23 10:32:07;;;;;;;6.75;3.40;;;;;;;27.25;41.33;69802.22;4920536;29;20423;-90
2022/08/23 10:34:52;;;;;;;7.63;3.30;;;;;;;27.39;41.66;69816.16;4913127;29;20118;-90
2022/08/23 10:37:36;;;;;;;8.10;3.88;;;;;;;27.90;41.49;69876.34;4931709;29;20134;-91
2022/08/23 10:40:18;;;;;;;6.28;3.70;;;;;;;27.74;40.72;69855.22;4912729;29;20499;-91
2022/08/23 10:43:24;;;;;;;5.05;3.45;;;;;;;27.58;41.18;69837.41;4931456;29;20116;-91
2022/08/23 10:45:51;;;;;;;7.53;3.17;;;;;;;27.41;41.39;69817.88;4932395;29;20047;-93
2022/08/23 10:48:33;;;;;;;6.07;3.20;;;;;;;27.76;42.00;69857.50;4903280;29;20100;-91
2022/08/23 10:51:08;;;;;;;7.15;3.55;;;;;;;27.93;39.70;69878.66;4927589;29;20072;-91
2022/08/23 10:53:47;;;;;;;5.10;2.83;;;;;;;27.96;39.10;69879.38;4897713;29;20048;-91
2022/08/23 10:56:18;;;;;;;6.88;2.90;;;;;;;27.94;38.77;69880.41;4928185;29;20079;-91
2022/08/23 10:58:58;;;;;;;6.95;3.28;;;;;;;27.94;39.51;69877.06;4920752;29;20058;-90
2022/08/23 11:01:38;;;;;;;6.20;3.47;;;;;;;28.01;39.50;69891.16;4929015;29;20040;-92
2022/08/23 11:04:15;;;;;;;8.93;3.33;;;;;;;28.26;39.26;69913.28;4923421;29;20503;-90
2022/08/23 11:06:49;;;;;;;5.80;2.97;;;;;;;28.52;37.36;69942.63;4914191;29;20206;-92
2022/08/23 11:09:18;;;;;;;11.13;3.33;;;;;;;28.82;36.56;69975.97;4934282;29;20052;-91
2022/08/23 11:11:46;;;;;;;7.22;3.25;;;;;;;28.64;37.53;69958.59;4928195;29;20051;-92
2022/08/23 11:14:26;;;;;;;7.35;3.53;;;;;;;28.72;37.47;69962.88;4940548;29;20400;-91
2022/08/23 11:17:05;;;;;;;7.25;3.78;;;;;;;29.02;37.85;70002.31;4942294;29;20044;-89
2022/08/23 11:20:07;;;;;;;5.38;2.90;;;;;;;29.00;37.53;70000.00;4938099;29;20044;-90
2022/08/23 11:23:02;;;;;;;8.77;3.58;;;;;;;29.18;36.35;70022.31;4905532;29;20044;-90
2022/08/23 11:25:28;;;;;;;7.70;3.47;;;;;;;28.96;37.07;69994.81;4933367;29;20043;-90
2022/08/23 11:28:42;;;;;;;8.32;3.45;;;;;;;28.78;36.96;69972.53;4911284;29;20071;-90
2022/08/23 11:31:08;;;;;;;8.35;3.35;;;;;;;28.71;36.59;69964.47;4896428;29;20125;-90
2022/08/23 11:33:57;;;;;;;6.03;3.10;;;;;;;28.66;36.55;69958.16;4916589;29;20079;-90
2022/08/23 11:36:26;;;;;;;6.20;3.20;;;;;;;28.86;37.01;69980.56;4916212;29;20447;-90
2022/08/23 11:38:51;;;;;;;7.85;3.20;;;;;;;29.45;37.29;70041.81;4918200;29;20040;-92
2022/08/23 11:41:31;;;;;;;6.93;2.92;;;;;;;29.56;36.02;70064.88;4916633;29;20081;-89
2022/08/23 11:43:56;;;;;;;6.82;2.80;;;;;;;29.73;35.63;70081.72;4916891;29;20060;-91
2022/08/23 11:46:21;;;;;;;6.53;3.20;;;;;;;29.97;34.77;70105.44;4933574;29;20055;-89
2022/08/23 11:48:59;;;;;;;7.30;2.92;;;;;;;29.84;34.58;70094.38;4916034;29;20044;-90
2022/08/23 11:51:36;;;;;;;6.32;3.20;;;;;;;29.73;35.38;70078.97;4914834;29;20052;-90
2022/08/23 11:54:20;;;;;;;7.07;3.38;;;;;;;29.79;35.76;70088.03;4913585;29;20043;-90
2022/08/23 11:57:24;;;;;;;7.47;3.20;;;;;;;30.10;34.78;70120.41;4913982;29;20063;-90
2022/08/23 11:59:58;;;;;;;5.97;3.15;;;;;;;30.38;35.07;70151.50;4916860;29;20120;-92
2022/08/23 12:02:54;;;;;;;6.63;3.22;;;;;;;30.15;35.06;70128.88;4919135;29;20052;-90
2022/08/23 12:05:31;;;;;;;5.85;3.28;;;;;;;29.65;34.77;70069.75;4889886;29;20063;-90
2022/08/23 12:08:02;;;;;;;9.32;2.72;;;;;;;29.62;33.84;70066.88;4900385;29;20041;-91
2022/08/23 12:10:36;;;;;;;6.88;3.00;;;;;;;29.51;34.38;70054.22;4927359;29;20063;-90
2022/08/23 12:13:50;;;;;;;7.95;3.42;;;;;;;29.29;34.72;70029.47;4930561;29;20059;-90
2022/08/23 12:19:36;;;;;;;8.40;3.20;;;;;;;29.22;35.61;70022.00;4919669;29;20047;-89
2022/08/23 12:22:10;;;;;;;6.95;3.20;;;;;;;29.46;35.60;70049.03;4931636;29;20043;-90
2022/08/23 12:24:49;;;;;;;6.03;2.90;;;;;;;29.66;35.33;70073.66;4936678;29;20080;-90
2022/08/23 12:27:44;;;;;;;10.05;3.45;;;;;;;29.56;34.56;70059.38;4899684;29;20040;-91
2022/08/23 12:30:21;;;;;;;7.40;3.17;;;;;;;29.75;34.67;70080.69;4953394;29;20091;-90
2022/08/23 12:33:04;;;;;;;5.47;3.10;;;;;;;30.12;35.47;70119.94;4937355;29;20046;-90
2022/08/23 12:35:43;;;;;;;5.00;2.78;;;;;;;30.26;35.62;70144.31;4930951;29;20055;-89
2022/08/23 12:38:18;;;;;;;6.68;2.95;;;;;;;30.16;34.15;70127.31;4936618;29;20046;-89
2022/08/23 12:40:48;;;;;;;6.25;2.85;;;;;;;30.20;33.60;70125.84;4922721;29;20138;-88